createdAt,value
2023-04-26T00:02:05.252Z,18.90
2023-04-26T00:04:34.126Z,16.20
2023-04-26T00:07:01.875Z,16.70
2023-04-26T00:09:29.762Z,18.40
2023-04-26T00:11:57.435Z,16.50
2023-04-26T00:14:25.062Z,15.80
2023-04-26T00:16:52.722Z,14.90
2023-04-26T00:19:21.525Z,14.80
2023-04-26T00:21:49.000Z,14.80
2023-04-26T00:24:16.565Z,15.30
2023-04-26T00:26:44.124Z,20.00
2023-04-26T00:29:11.734Z,17.70
2023-04-26T00:31:39.345Z,19.70
2023-04-26T00:34:07.405Z,22.30
2023-04-26T00:36:34.908Z,15.90
2023-04-26T00:39:02.680Z,18.60
2023-04-26T00:41:30.200Z,13.70
2023-04-26T00:43:57.654Z,21.00
2023-04-26T00:46:26.495Z,14.60
2023-04-26T00:48:56.240Z,22.90
2023-04-26T00:51:23.805Z,13.70
2023-04-26T00:53:51.382Z,20.50
2023-04-26T00:56:19.211Z,14.60
2023-04-26T00:58:46.921Z,14.70
2023-04-26T01:01:14.431Z,15.10
2023-04-26T01:03:44.390Z,14.20
2023-04-26T01:06:13.511Z,12.70
2023-04-26T01:08:41.501Z,15.40
2023-04-26T01:11:09.218Z,16.50
2023-04-26T01:13:38.456Z,15.80
2023-04-26T01:16:08.879Z,12.70
2023-04-26T01:18:36.982Z,11.40
2023-04-26T01:21:05.557Z,13.70
2023-04-26T01:23:33.391Z,14.30
2023-04-26T01:26:01.006Z,15.00
2023-04-26T01:28:29.701Z,14.60
2023-04-26T01:30:57.615Z,16.40
2023-04-26T01:33:25.116Z,12.80
2023-04-26T01:35:52.700Z,13.30
2023-04-26T01:38:20.757Z,18.50
2023-04-26T01:40:48.294Z,13.60
2023-04-26T01:43:18.513Z,16.50
2023-04-26T01:45:49.360Z,14.30
2023-04-26T01:48:16.990Z,13.50
2023-04-26T01:50:44.548Z,16.30
2023-04-26T01:53:12.201Z,11.80
2023-04-26T01:55:39.686Z,14.60
2023-04-26T01:58:07.423Z,15.20
2023-04-26T02:00:35.055Z,14.80
2023-04-26T02:03:02.625Z,14.50
2023-04-26T02:05:30.726Z,12.40
2023-04-26T02:07:58.461Z,12.70
2023-04-26T02:10:26.045Z,13.10
2023-04-26T02:12:53.670Z,11.40
2023-04-26T02:15:21.990Z,16.90
2023-04-26T02:17:49.591Z,13.90
2023-04-26T02:20:17.165Z,14.50
2023-04-26T02:22:44.692Z,13.90
2023-04-26T02:25:12.451Z,14.50
2023-04-26T02:27:40.004Z,13.40
2023-04-26T02:30:08.186Z,15.20
2023-04-26T02:32:36.640Z,18.60
2023-04-26T02:35:05.539Z,13.60
2023-04-26T02:37:34.352Z,14.20
2023-04-26T02:40:01.836Z,13.90
2023-04-26T02:42:29.370Z,13.50
2023-04-26T02:44:56.867Z,14.70
2023-04-26T02:47:24.521Z,14.70
2023-04-26T02:49:52.568Z,15.70
2023-04-26T02:52:20.123Z,13.80
2023-04-26T02:54:47.890Z,11.80
2023-04-26T02:57:15.769Z,11.20
2023-04-26T02:59:44.467Z,12.80
2023-04-26T03:02:12.070Z,14.00
2023-04-26T03:04:39.946Z,14.00
2023-04-26T03:07:07.492Z,11.00
2023-04-26T03:09:38.076Z,14.80
2023-04-26T03:12:07.391Z,14.20
2023-04-26T03:14:35.658Z,16.80
2023-04-26T03:17:03.286Z,14.30
2023-04-26T03:19:30.834Z,13.70
2023-04-26T03:21:58.468Z,14.40
2023-04-26T03:24:27.031Z,19.60
2023-04-26T03:26:54.608Z,26.50
2023-04-26T03:29:22.408Z,54.40
2023-04-26T03:31:49.937Z,47.20
2023-04-26T03:34:17.474Z,32.60
2023-04-26T03:36:45.033Z,35.90
2023-04-26T03:39:12.613Z,28.10
2023-04-26T03:41:40.440Z,22.40
2023-04-26T03:44:08.038Z,24.70
2023-04-26T03:46:35.741Z,28.80
2023-04-26T03:49:03.557Z,31.20
2023-04-26T03:51:31.358Z,25.40
2023-04-26T03:53:59.251Z,35.50
2023-04-26T03:56:26.771Z,35.80
2023-04-26T03:58:54.412Z,24.80
2023-04-26T04:01:22.246Z,28.60
2023-04-26T04:03:49.906Z,21.40
2023-04-26T04:06:17.803Z,25.00
2023-04-26T04:08:45.822Z,20.40
2023-04-26T04:11:14.044Z,17.40
2023-04-26T04:13:41.530Z,108.60
2023-04-26T04:16:10.594Z,200.90
2023-04-26T04:18:38.204Z,43.00
2023-04-26T04:21:06.981Z,21.10
2023-04-26T04:23:34.529Z,207.40
2023-04-26T04:26:03.163Z,242.70
2023-04-26T04:28:30.743Z,203.10
2023-04-26T04:30:58.288Z,65.40
2023-04-26T04:33:28.611Z,20.60
2023-04-26T04:35:56.191Z,80.50
2023-04-26T04:38:24.630Z,33.30
2023-04-26T04:40:52.210Z,32.60
2023-04-26T04:43:20.305Z,13.40
2023-04-26T04:45:49.364Z,18.60
2023-04-26T04:48:17.029Z,15.70
2023-04-26T04:50:44.648Z,14.30
2023-04-26T04:53:14.968Z,12.50
2023-04-26T04:55:42.474Z,10.40
2023-04-26T04:58:09.952Z,13.70
2023-04-26T05:00:38.085Z,13.00
2023-04-26T05:03:05.898Z,13.40
2023-04-26T05:05:34.006Z,11.40
2023-04-26T05:08:01.506Z,9.40
2023-04-26T05:10:29.105Z,14.50
2023-04-26T05:12:56.794Z,10.50
2023-04-26T05:15:24.330Z,11.30
2023-04-26T05:17:51.900Z,13.30
2023-04-26T05:20:19.752Z,12.90
2023-04-26T05:22:47.476Z,13.50
2023-04-26T05:25:15.027Z,14.00
2023-04-26T05:27:42.543Z,13.40
2023-04-26T05:30:10.961Z,11.90
2023-04-26T05:32:38.596Z,10.00
2023-04-26T05:35:06.398Z,12.40
2023-04-26T05:37:34.401Z,17.00
2023-04-26T05:40:02.487Z,11.40
2023-04-26T05:42:30.005Z,13.30
2023-04-26T05:44:59.029Z,17.00
2023-04-26T05:47:29.302Z,25.60
2023-04-26T05:49:56.823Z,24.50
2023-04-26T05:52:24.529Z,12.00
2023-04-26T05:54:52.396Z,19.00
2023-04-26T05:57:21.453Z,16.10
2023-04-26T05:59:49.018Z,15.50
2023-04-26T06:02:16.918Z,10.50
2023-04-26T06:04:46.360Z,10.60
2023-04-26T06:07:14.192Z,17.60
2023-04-26T06:09:41.906Z,11.10
2023-04-26T06:12:09.433Z,17.20
2023-04-26T06:14:37.036Z,15.00
2023-04-26T06:17:04.743Z,8.60
2023-04-26T06:19:32.610Z,18.00
2023-04-26T06:22:00.194Z,11.50
2023-04-26T06:24:27.708Z,8.90
2023-04-26T06:26:55.287Z,10.40
2023-04-26T06:29:23.075Z,10.80
2023-04-26T06:31:50.700Z,8.90
2023-04-26T06:34:18.249Z,14.20
2023-04-26T06:36:46.970Z,13.00
2023-04-26T06:39:17.359Z,22.70
2023-04-26T06:41:45.964Z,18.10
2023-04-26T06:44:13.603Z,11.50
2023-04-26T06:46:41.242Z,12.60
2023-04-26T06:49:11.402Z,13.70
2023-04-26T06:51:41.910Z,13.60
2023-04-26T06:54:10.386Z,13.90
2023-04-26T06:56:37.997Z,12.70
2023-04-26T06:59:09.512Z,12.60
2023-04-26T07:01:41.996Z,12.90
2023-04-26T07:04:12.751Z,14.90
2023-04-26T07:06:41.146Z,12.40
2023-04-26T07:09:08.725Z,16.60
2023-04-26T07:11:39.928Z,12.70
2023-04-26T07:14:07.691Z,15.80
2023-04-26T07:16:35.519Z,13.80
2023-04-26T07:19:03.460Z,16.80
2023-04-26T07:21:31.238Z,13.70
2023-04-26T07:24:00.329Z,12.00
2023-04-26T07:26:28.127Z,10.40
2023-04-26T07:28:56.522Z,15.30
2023-04-26T07:31:24.156Z,13.90
2023-04-26T07:33:52.119Z,14.00
2023-04-26T07:36:21.934Z,22.10
2023-04-26T07:38:50.850Z,13.00
2023-04-26T07:41:18.917Z,14.00
2023-04-26T07:43:46.616Z,16.10
2023-04-26T07:46:14.412Z,12.30
2023-04-26T07:48:43.024Z,13.30
2023-04-26T07:51:17.498Z,10.40
2023-04-26T07:53:51.256Z,8.70
2023-04-26T07:56:37.892Z,11.50
2023-04-26T07:59:05.506Z,11.00
2023-04-26T08:01:33.573Z,12.20
2023-04-26T08:04:01.738Z,14.70
2023-04-26T08:06:30.140Z,18.60
2023-04-26T08:08:57.695Z,11.40
2023-04-26T08:11:25.278Z,13.70
2023-04-26T08:13:53.281Z,14.30
2023-04-26T08:16:21.354Z,17.70
2023-04-26T08:18:49.394Z,12.30
2023-04-26T08:21:20.026Z,18.00
2023-04-26T08:23:47.769Z,12.00
2023-04-26T08:26:15.574Z,12.50
2023-04-26T08:28:43.127Z,13.30
2023-04-26T08:31:10.748Z,62.30
2023-04-26T08:33:38.605Z,12.70
2023-04-26T08:36:09.220Z,24.20
2023-04-26T08:38:36.886Z,8.80
2023-04-26T08:41:05.396Z,8.50
2023-04-26T08:43:37.120Z,11.70
2023-04-26T08:46:11.439Z,10.40
2023-04-26T08:48:41.956Z,11.80
2023-04-26T08:51:13.787Z,8.80
2023-04-26T08:53:43.749Z,9.00
2023-04-26T08:56:13.182Z,10.90
2023-04-26T08:58:41.072Z,18.90
2023-04-26T09:01:10.282Z,18.30
2023-04-26T09:03:38.049Z,19.00
2023-04-26T09:06:07.718Z,11.40
2023-04-26T09:08:42.091Z,14.40
2023-04-26T09:11:09.629Z,13.80
2023-04-26T09:13:37.270Z,15.60
2023-04-26T09:16:05.407Z,15.40
2023-04-26T09:18:34.132Z,14.20
2023-04-26T09:21:08.254Z,17.20
2023-04-26T09:23:36.038Z,15.90
2023-04-26T09:26:20.923Z,15.40
2023-04-26T09:28:49.396Z,21.30
2023-04-26T09:31:39.665Z,16.50
2023-04-26T09:34:08.746Z,10.10
2023-04-26T09:36:57.537Z,9.10
2023-04-26T09:39:35.310Z,21.70
2023-04-26T09:42:11.411Z,11.40
2023-04-26T09:44:39.380Z,9.80
2023-04-26T09:47:12.087Z,10.20
2023-04-26T09:49:56.775Z,12.00
2023-04-26T09:52:24.487Z,10.70
2023-04-26T09:54:53.850Z,14.80
2023-04-26T09:57:24.005Z,9.50
2023-04-26T09:59:55.532Z,12.20
2023-04-26T10:02:28.030Z,8.30
2023-04-26T10:05:00.193Z,10.70
2023-04-26T10:07:33.399Z,13.20
2023-04-26T10:10:02.161Z,9.50
2023-04-26T10:12:29.906Z,12.30
2023-04-26T10:15:01.486Z,9.90
2023-04-26T10:17:32.653Z,9.40
2023-04-26T10:20:05.027Z,12.20
2023-04-26T10:22:47.732Z,11.70
2023-04-26T10:25:15.509Z,11.80
2023-04-26T10:27:48.933Z,8.90
2023-04-26T10:30:24.017Z,13.30
2023-04-26T10:32:58.274Z,14.60
2023-04-26T10:35:30.366Z,18.60
2023-04-26T10:38:01.437Z,11.40
2023-04-26T10:40:33.671Z,9.40
2023-04-26T10:43:18.325Z,13.80
2023-04-26T10:45:50.397Z,16.30
2023-04-26T10:48:37.169Z,15.30
2023-04-26T10:51:07.620Z,13.60
2023-04-26T10:53:53.228Z,17.00
2023-04-26T10:56:27.387Z,9.70
2023-04-26T11:01:43.025Z,12.10
2023-04-26T11:04:12.439Z,11.60
2023-04-26T11:06:59.911Z,16.20
2023-04-26T11:09:51.597Z,14.50
2023-04-26T11:12:22.345Z,16.70
2023-04-26T11:14:50.312Z,18.30
2023-04-26T11:17:18.325Z,13.60
2023-04-26T11:19:47.989Z,11.10
2023-04-26T11:22:16.053Z,9.80
2023-04-26T11:24:43.580Z,10.00
2023-04-26T11:27:11.884Z,13.70
2023-04-26T11:29:39.944Z,39.10
2023-04-26T11:32:08.091Z,13.20
2023-04-26T11:34:38.136Z,17.10
2023-04-26T11:37:06.637Z,20.90
2023-04-26T11:39:36.830Z,26.10
2023-04-26T11:42:11.925Z,17.00
2023-04-26T11:44:40.990Z,21.10
2023-04-26T11:47:10.237Z,43.90
2023-04-26T11:49:38.830Z,36.90
2023-04-26T11:52:06.644Z,33.40
2023-04-26T11:54:37.970Z,31.10
2023-04-26T11:57:22.607Z,19.30
2023-04-26T11:59:50.404Z,15.60
2023-04-26T12:02:20.662Z,14.70
2023-04-26T12:04:59.216Z,21.40
2023-04-26T12:07:37.893Z,13.80
2023-04-26T12:10:22.520Z,50.10
2023-04-26T12:12:56.701Z,33.90
2023-04-26T12:15:31.260Z,34.70
2023-04-26T12:18:17.379Z,28.70
2023-04-26T12:20:48.209Z,24.10
2023-04-26T12:23:17.400Z,28.00
2023-04-26T12:26:03.751Z,15.50
2023-04-26T12:28:31.284Z,28.40
2023-04-26T12:31:01.376Z,16.80
2023-04-26T12:33:28.951Z,24.60
2023-04-26T12:35:57.845Z,23.10
2023-04-26T12:38:25.452Z,37.00
2023-04-26T12:40:52.996Z,17.20
2023-04-26T12:43:24.927Z,14.30
2023-04-26T12:45:52.825Z,14.30
2023-04-26T12:48:20.392Z,33.20
2023-04-26T12:50:48.049Z,22.20
2023-04-26T12:53:15.731Z,24.20
2023-04-26T12:55:44.185Z,12.80
2023-04-26T12:58:14.484Z,18.10
2023-04-26T13:00:43.967Z,12.10
2023-04-26T13:03:14.808Z,16.40
2023-04-26T13:05:43.072Z,14.40
2023-04-26T13:08:10.978Z,12.70
2023-04-26T13:10:38.738Z,16.60
2023-04-26T13:13:06.280Z,17.90
2023-04-26T13:15:34.047Z,12.80
2023-04-26T13:18:04.298Z,13.40
2023-04-26T13:20:34.408Z,11.20
2023-04-26T13:23:01.897Z,18.50
2023-04-26T13:25:29.613Z,12.90
2023-04-26T13:27:57.109Z,11.30
2023-04-26T13:30:24.844Z,13.50
2023-04-26T13:32:52.574Z,17.60
2023-04-26T13:35:20.294Z,13.40
2023-04-26T13:37:47.912Z,16.60
2023-04-26T13:40:15.694Z,11.60
2023-04-26T13:42:43.221Z,15.30
2023-04-26T13:45:12.469Z,16.30
2023-04-26T13:47:40.095Z,10.20
2023-04-26T13:50:08.166Z,17.10
2023-04-26T13:52:36.177Z,16.90
2023-04-26T13:55:04.558Z,13.50
2023-04-26T13:57:32.183Z,18.90
2023-04-26T13:59:59.691Z,15.50
2023-04-26T14:02:27.879Z,13.30
2023-04-26T14:04:56.004Z,14.50
2023-04-26T14:07:23.718Z,22.10
2023-04-26T14:09:52.240Z,17.60
2023-04-26T14:12:19.719Z,25.70
2023-04-26T14:14:48.181Z,15.70
2023-04-26T14:17:16.507Z,15.40
2023-04-26T14:19:44.447Z,15.30
2023-04-26T14:22:12.836Z,33.20
2023-04-26T14:24:41.315Z,18.10
2023-04-26T14:27:09.232Z,19.90
2023-04-26T14:29:37.166Z,21.70
2023-04-26T14:32:05.032Z,12.90
2023-04-26T14:34:39.042Z,14.50
2023-04-26T14:37:07.113Z,17.20
2023-04-26T14:39:35.043Z,10.30
2023-04-26T14:42:04.053Z,12.20
2023-04-26T14:44:31.745Z,11.80
2023-04-26T14:46:59.460Z,10.80
2023-04-26T14:49:27.152Z,17.40
2023-04-26T14:51:54.774Z,15.40
2023-04-26T14:54:22.423Z,13.50
2023-04-26T14:56:51.341Z,24.00
2023-04-26T14:59:18.972Z,16.40
2023-04-26T15:01:46.775Z,24.80
2023-04-26T15:04:14.581Z,87.80
2023-04-26T15:06:42.243Z,71.00
2023-04-26T15:09:11.399Z,46.30
2023-04-26T15:11:38.964Z,64.50
2023-04-26T15:14:06.521Z,29.00
2023-04-26T15:16:34.206Z,45.80
2023-04-26T15:19:01.961Z,33.80
2023-04-26T15:21:29.775Z,56.20
2023-04-26T15:23:57.351Z,24.70
2023-04-26T15:26:28.050Z,13.90
2023-04-26T15:28:55.514Z,34.10
2023-04-26T15:31:24.185Z,14.80
2023-04-26T15:33:55.457Z,13.60
2023-04-26T15:36:23.114Z,13.30
2023-04-26T15:38:50.905Z,11.20
2023-04-26T15:41:18.419Z,13.90
2023-04-26T15:43:45.867Z,12.50
2023-04-26T15:46:15.078Z,14.50
2023-04-26T15:48:43.007Z,13.90
2023-04-26T15:51:11.079Z,10.80
2023-04-26T15:53:43.313Z,46.10
2023-04-26T15:56:15.950Z,11.00
2023-04-26T15:58:45.140Z,15.60
2023-04-26T16:01:13.766Z,15.50
2023-04-26T16:03:44.639Z,14.80
2023-04-26T16:06:14.326Z,15.70
2023-04-26T16:08:42.188Z,18.40
2023-04-26T16:11:09.724Z,25.90
2023-04-26T16:13:37.281Z,45.40
2023-04-26T16:16:11.474Z,21.40
2023-04-26T16:18:43.787Z,22.80
2023-04-26T16:21:13.122Z,17.90
2023-04-26T16:23:42.188Z,18.60
2023-04-26T16:26:10.282Z,26.60
2023-04-26T16:28:37.985Z,32.90
2023-04-26T16:31:06.333Z,26.20
2023-04-26T16:33:34.307Z,21.30
2023-04-26T16:36:02.106Z,14.40
2023-04-26T16:38:29.574Z,14.50
2023-04-26T16:40:59.332Z,19.60
2023-04-26T16:43:34.356Z,38.70
2023-04-26T16:46:03.169Z,19.00
2023-04-26T16:48:32.693Z,23.60
2023-04-26T16:51:01.045Z,21.60
2023-04-26T16:53:28.706Z,24.80
2023-04-26T16:55:57.207Z,21.60
2023-04-26T16:58:25.487Z,17.80
2023-04-26T17:00:53.159Z,33.70
2023-04-26T17:03:21.262Z,31.80
2023-04-26T17:05:49.453Z,18.50
2023-04-26T17:08:18.228Z,16.40
2023-04-26T17:10:46.878Z,22.50
2023-04-26T17:13:14.874Z,33.20
2023-04-26T17:15:43.224Z,40.30
2023-04-26T17:18:10.965Z,44.70
2023-04-26T17:20:39.369Z,24.60
2023-04-26T17:23:08.770Z,20.20
2023-04-26T17:25:36.344Z,28.10
2023-04-26T17:28:04.006Z,24.60
2023-04-26T17:30:31.595Z,23.90
2023-04-26T17:32:59.161Z,38.30
2023-04-26T17:35:26.830Z,23.20
2023-04-26T17:37:54.345Z,36.00
2023-04-26T17:40:21.829Z,53.50
2023-04-26T17:42:49.734Z,76.40
2023-04-26T17:45:17.635Z,59.30
2023-04-26T17:47:45.994Z,48.20
2023-04-26T17:50:13.678Z,28.40
2023-04-26T17:52:41.768Z,19.10
2023-04-26T17:55:10.135Z,23.40
2023-04-26T17:57:37.814Z,19.10
2023-04-26T18:00:06.763Z,29.40
2023-04-26T18:02:36.447Z,29.80
2023-04-26T18:05:08.504Z,51.40
2023-04-26T18:07:36.290Z,283.40
2023-04-26T18:10:04.162Z,97.70
2023-04-26T18:12:32.150Z,71.30
2023-04-26T18:14:59.778Z,163.90
2023-04-26T18:17:27.427Z,75.60
2023-04-26T18:19:55.116Z,30.90
2023-04-26T18:22:22.684Z,37.40
2023-04-26T18:24:50.404Z,38.10
2023-04-26T18:27:18.012Z,58.50
2023-04-26T18:29:45.812Z,70.40
2023-04-26T18:32:13.397Z,60.80
2023-04-26T18:34:41.337Z,53.10
2023-04-26T18:37:09.340Z,38.50
2023-04-26T18:39:37.144Z,28.80
2023-04-26T18:42:04.872Z,56.00
2023-04-26T18:44:33.974Z,64.00
2023-04-26T18:47:02.490Z,74.10
2023-04-26T18:49:30.724Z,56.80
2023-04-26T18:51:58.216Z,64.00
2023-04-26T18:54:26.226Z,59.30
2023-04-26T18:56:54.724Z,53.00
2023-04-26T18:59:22.357Z,46.30
2023-04-26T19:01:49.867Z,36.20
2023-04-26T19:04:17.727Z,40.70
2023-04-26T19:06:45.314Z,33.80
2023-04-26T19:09:13.709Z,32.00
2023-04-26T19:11:41.377Z,34.00
2023-04-26T19:14:08.958Z,32.70
2023-04-26T19:16:36.571Z,39.60
2023-04-26T19:19:04.237Z,47.80
2023-04-26T19:21:32.195Z,59.70
2023-04-26T19:23:59.672Z,160.50
2023-04-26T19:26:27.212Z,184.40
2023-04-26T19:28:55.893Z,153.90
2023-04-26T19:31:24.002Z,115.10
2023-04-26T19:33:51.883Z,99.80
2023-04-26T19:36:20.288Z,79.00
2023-04-26T19:38:48.502Z,208.70
2023-04-26T19:41:16.084Z,645.90
2023-04-26T19:43:43.854Z,559.30
2023-04-26T19:46:15.782Z,544.90
2023-04-26T19:48:45.117Z,602.30
2023-04-26T19:51:17.348Z,579.50
2023-04-26T19:53:44.899Z,279.20
2023-04-26T19:56:12.945Z,227.50
2023-04-26T19:58:40.490Z,256.20
2023-04-26T20:01:08.248Z,234.60
2023-04-26T20:03:37.545Z,252.40
2023-04-26T20:06:05.400Z,245.40
2023-04-26T20:08:32.973Z,220.90
2023-04-26T20:11:05.005Z,168.40
2023-04-26T20:13:33.009Z,214.10
2023-04-26T20:16:00.656Z,184.80
2023-04-26T20:18:28.318Z,54.70
2023-04-26T20:20:56.145Z,38.00
2023-04-26T20:23:23.680Z,40.60
2023-04-26T20:25:51.810Z,69.70
2023-04-26T20:28:19.454Z,64.60
2023-04-26T20:30:47.049Z,53.00
2023-04-26T20:33:14.594Z,52.40
2023-04-26T20:35:42.624Z,38.90
2023-04-26T20:38:10.830Z,46.40
2023-04-26T20:40:38.338Z,44.50
2023-04-26T20:43:05.846Z,50.80
2023-04-26T20:45:33.352Z,31.70
2023-04-26T20:48:01.302Z,39.40
2023-04-26T20:50:28.979Z,63.80
2023-04-26T20:52:56.941Z,45.10
2023-04-26T20:55:24.548Z,42.60
2023-04-26T20:57:52.122Z,45.30
2023-04-26T21:00:19.969Z,60.00
2023-04-26T21:02:47.759Z,66.50
2023-04-26T21:05:15.649Z,294.10
2023-04-26T21:07:43.468Z,231.70
2023-04-26T21:10:11.715Z,91.30
2023-04-26T21:12:39.945Z,47.10
2023-04-26T21:15:08.444Z,43.70
2023-04-26T21:17:36.477Z,36.20
2023-04-26T21:20:04.397Z,22.50
2023-04-26T21:22:32.074Z,30.80
2023-04-26T21:24:59.805Z,24.20
2023-04-26T21:27:27.620Z,28.70
2023-04-26T21:29:55.322Z,28.60
2023-04-26T21:32:22.957Z,27.30
2023-04-26T21:34:50.583Z,23.10
2023-04-26T21:37:18.231Z,21.50
2023-04-26T21:39:45.817Z,34.10
2023-04-26T21:42:13.930Z,28.60
2023-04-26T21:44:41.527Z,53.30
2023-04-26T21:47:09.155Z,25.80
2023-04-26T21:49:39.423Z,56.00
2023-04-26T21:52:07.075Z,112.40
2023-04-26T21:54:37.263Z,39.60
2023-04-26T21:57:07.755Z,29.30
2023-04-26T21:59:36.312Z,40.60
2023-04-26T22:02:04.013Z,48.20
2023-04-26T22:04:31.963Z,39.20
2023-04-26T22:06:59.616Z,36.40
2023-04-26T22:09:27.396Z,37.20
2023-04-26T22:11:55.050Z,39.60
2023-04-26T22:14:22.674Z,34.10
2023-04-26T22:16:50.432Z,29.10
2023-04-26T22:19:18.172Z,29.30
2023-04-26T22:21:45.754Z,45.30
2023-04-26T22:24:13.381Z,51.60
2023-04-26T22:26:41.360Z,63.30
2023-04-26T22:29:09.390Z,46.30
2023-04-26T22:31:37.209Z,45.20
2023-04-26T22:34:04.934Z,47.10
2023-04-26T22:36:32.556Z,38.80
2023-04-26T22:39:00.356Z,67.90
2023-04-26T22:41:28.146Z,63.40
2023-04-26T22:43:55.777Z,39.50
2023-04-26T22:46:23.468Z,39.40
2023-04-26T22:48:51.211Z,33.10
2023-04-26T22:51:19.033Z,28.50
2023-04-26T22:53:46.670Z,26.60
2023-04-26T22:56:14.428Z,28.40
2023-04-26T22:58:42.027Z,20.10
2023-04-26T23:01:09.717Z,16.70
2023-04-26T23:03:37.809Z,18.30
2023-04-26T23:06:06.250Z,14.30
2023-04-26T23:08:33.983Z,18.50
2023-04-26T23:11:01.748Z,17.60
2023-04-26T23:13:29.533Z,13.60
2023-04-26T23:15:57.207Z,14.70
2023-04-26T23:18:26.630Z,14.60
2023-04-26T23:20:54.422Z,15.10
2023-04-26T23:23:22.077Z,17.20
2023-04-26T23:25:49.829Z,15.40
2023-04-26T23:28:17.601Z,14.50
2023-04-26T23:30:45.496Z,12.00
2023-04-26T23:33:13.725Z,17.90
2023-04-26T23:35:42.306Z,13.70
2023-04-26T23:38:10.159Z,12.90
2023-04-26T23:40:37.896Z,18.60
2023-04-26T23:43:06.325Z,17.50
2023-04-26T23:45:33.995Z,14.50
2023-04-26T23:48:01.889Z,14.20
2023-04-26T23:50:29.827Z,18.20
2023-04-26T23:52:57.408Z,14.10
2023-04-26T23:55:25.116Z,16.40
2023-04-26T23:57:52.734Z,15.80
